sensor_id;sensor_type;location;lat;lon;timestamp;temperature;humidity
20174;DHT22;10246;50.620;7.232;2023-04-24T00:01:07;13.30;1.00
20174;DHT22;10246;50.620;7.232;2023-04-24T00:03:34;13.20;1.00
20174;DHT22;10246;50.620;7.232;2023-04-24T00:06:01;13.30;1.00
20174;DHT22;10246;50.620;7.232;2023-04-24T00:08:28;13.20;1.00
20174;DHT22;10246;50.620;7.232;2023-04-24T00:10:56;13.20;1.00
20174;DHT22;10246;50.620;7.232;2023-04-24T00:13:24;13.20;1.00
20174;DHT22;10246;50.620;7.232;2023-04-24T00:15:50;13.10;1.00
20174;DHT22;10246;50.620;7.232;2023-04-24T00:18:17;13.10;1.00
20174;DHT22;10246;50.620;7.232;2023-04-24T00:20:44;13.10;1.00
20174;DHT22;10246;50.620;7.232;2023-04-24T00:23:11;13.10;1.00
20174;DHT22;10246;50.620;7.232;2023-04-24T00:25:38;13.00;1.00
20174;DHT22;10246;50.620;7.232;2023-04-24T00:28:07;13.00;1.00
20174;DHT22;10246;50.620;7.232;2023-04-24T00:30:33;13.00;1.00
20174;DHT22;10246;50.620;7.232;2023-04-24T00:33:00;13.00;1.00
20174;DHT22;10246;50.620;7.232;2023-04-24T00:35:27;13.00;1.00
20174;DHT22;10246;50.620;7.232;2023-04-24T00:37:53;13.00;1.00
20174;DHT22;10246;50.620;7.232;2023-04-24T00:40:20;13.00;1.00
20174;DHT22;10246;50.620;7.232;2023-04-24T00:42:47;13.00;1.00
20174;DHT22;10246;50.620;7.232;2023-04-24T00:45:16;13.00;1.00
20174;DHT22;10246;50.620;7.232;2023-04-24T00:47:43;13.00;1.00
20174;DHT22;10246;50.620;7.232;2023-04-24T00:50:11;13.00;1.00
20174;DHT22;10246;50.620;7.232;2023-04-24T00:52:38;13.00;1.00
20174;DHT22;10246;50.620;7.232;2023-04-24T00:55:06;13.00;1.00
20174;DHT22;10246;50.620;7.232;2023-04-24T00:57:33;13.00;1.00
20174;DHT22;10246;50.620;7.232;2023-04-24T01:00:01;13.00;1.00
20174;DHT22;10246;50.620;7.232;2023-04-24T01:02:30;13.00;1.00
20174;DHT22;10246;50.620;7.232;2023-04-24T01:04:59;12.90;1.00
20174;DHT22;10246;50.620;7.232;2023-04-24T01:07:27;12.90;1.00
20174;DHT22;10246;50.620;7.232;2023-04-24T01:09:54;12.90;1.00
20174;DHT22;10246;50.620;7.232;2023-04-24T01:12:20;12.90;1.00
20174;DHT22;10246;50.620;7.232;2023-04-24T01:14:47;12.90;1.00
20174;DHT22;10246;50.620;7.232;2023-04-24T01:17:14;12.90;1.00
20174;DHT22;10246;50.620;7.232;2023-04-24T01:19:42;12.90;1.00
20174;DHT22;10246;50.620;7.232;2023-04-24T01:22:13;12.90;1.00
20174;DHT22;10246;50.620;7.232;2023-04-24T01:24:40;12.80;1.00
20174;DHT22;10246;50.620;7.232;2023-04-24T01:27:08;12.90;1.00
20174;DHT22;10246;50.620;7.232;2023-04-24T01:29:35;12.90;1.00
20174;DHT22;10246;50.620;7.232;2023-04-24T01:32:02;12.90;1.00
20174;DHT22;10246;50.620;7.232;2023-04-24T01:34:30;12.90;1.00
20174;DHT22;10246;50.620;7.232;2023-04-24T01:36:57;12.90;1.00
20174;DHT22;10246;50.620;7.232;2023-04-24T01:39:26;12.90;1.00
20174;DHT22;10246;50.620;7.232;2023-04-24T01:41:54;12.90;1.00
20174;DHT22;10246;50.620;7.232;2023-04-24T01:44:21;12.80;1.00
20174;DHT22;10246;50.620;7.232;2023-04-24T01:46:47;12.80;1.00
20174;DHT22;10246;50.620;7.232;2023-04-24T01:49:14;12.80;1.00
20174;DHT22;10246;50.620;7.232;2023-04-24T01:51:41;12.70;1.00
20174;DHT22;10246;50.620;7.232;2023-04-24T01:54:08;12.60;1.00
20174;DHT22;10246;50.620;7.232;2023-04-24T01:56:36;12.60;1.00
20174;DHT22;10246;50.620;7.232;2023-04-24T01:59:06;12.60;1.00
20174;DHT22;10246;50.620;7.232;2023-04-24T02:01:34;12.50;1.00
20174;DHT22;10246;50.620;7.232;2023-04-24T02:04:02;12.50;1.00
20174;DHT22;10246;50.620;7.232;2023-04-24T02:06:29;12.30;1.00
20174;DHT22;10246;50.620;7.232;2023-04-24T02:08:57;12.20;1.00
20174;DHT22;10246;50.620;7.232;2023-04-24T02:11:24;12.10;1.00
20174;DHT22;10246;50.620;7.232;2023-04-24T02:13:52;12.00;1.00
20174;DHT22;10246;50.620;7.232;2023-04-24T02:16:18;12.00;1.00
20174;DHT22;10246;50.620;7.232;2023-04-24T02:18:45;11.90;1.00
20174;DHT22;10246;50.620;7.232;2023-04-24T02:21:12;11.90;1.00
20174;DHT22;10246;50.620;7.232;2023-04-24T02:23:39;11.90;1.00
20174;DHT22;10246;50.620;7.232;2023-04-24T02:26:06;12.00;1.00
20174;DHT22;10246;50.620;7.232;2023-04-24T02:28:33;11.90;1.00
20174;DHT22;10246;50.620;7.232;2023-04-24T02:31:01;12.00;1.00
20174;DHT22;10246;50.620;7.232;2023-04-24T02:33:28;12.00;1.00
20174;DHT22;10246;50.620;7.232;2023-04-24T02:35:55;12.00;1.00
20174;DHT22;10246;50.620;7.232;2023-04-24T02:38:21;12.00;1.00
20174;DHT22;10246;50.620;7.232;2023-04-24T02:40:48;11.90;1.00
20174;DHT22;10246;50.620;7.232;2023-04-24T02:43:15;11.90;1.00
20174;DHT22;10246;50.620;7.232;2023-04-24T02:45:42;11.90;1.00
20174;DHT22;10246;50.620;7.232;2023-04-24T02:48:10;11.90;1.00
20174;DHT22;10246;50.620;7.232;2023-04-24T02:50:37;11.80;1.00
20174;DHT22;10246;50.620;7.232;2023-04-24T02:53:03;11.70;1.00
20174;DHT22;10246;50.620;7.232;2023-04-24T02:55:30;11.70;1.00
20174;DHT22;10246;50.620;7.232;2023-04-24T02:57:57;11.60;1.00
20174;DHT22;10246;50.620;7.232;2023-04-24T03:00:24;11.50;1.00
20174;DHT22;10246;50.620;7.232;2023-04-24T03:02:50;11.50;1.00
20174;DHT22;10246;50.620;7.232;2023-04-24T03:05:20;11.40;1.00
20174;DHT22;10246;50.620;7.232;2023-04-24T03:07:46;11.30;1.00
20174;DHT22;10246;50.620;7.232;2023-04-24T03:10:13;11.30;1.00
20174;DHT22;10246;50.620;7.232;2023-04-24T03:12:40;11.30;1.00
20174;DHT22;10246;50.620;7.232;2023-04-24T03:15:08;11.20;1.00
20174;DHT22;10246;50.620;7.232;2023-04-24T03:17:35;11.10;1.00
20174;DHT22;10246;50.620;7.232;2023-04-24T03:20:02;11.10;1.00
20174;DHT22;10246;50.620;7.232;2023-04-24T03:22:32;11.00;1.00
20174;DHT22;10246;50.620;7.232;2023-04-24T03:24:59;11.00;1.00
20174;DHT22;10246;50.620;7.232;2023-04-24T03:27:26;10.90;1.00
20174;DHT22;10246;50.620;7.232;2023-04-24T03:29:52;10.80;1.00
20174;DHT22;10246;50.620;7.232;2023-04-24T03:32:20;10.80;1.00
20174;DHT22;10246;50.620;7.232;2023-04-24T03:34:47;10.80;1.00
20174;DHT22;10246;50.620;7.232;2023-04-24T03:37:14;10.70;1.00
20174;DHT22;10246;50.620;7.232;2023-04-24T03:39:43;10.70;1.00
20174;DHT22;10246;50.620;7.232;2023-04-24T03:42:10;10.60;1.00
20174;DHT22;10246;50.620;7.232;2023-04-24T03:44:36;10.70;1.00
20174;DHT22;10246;50.620;7.232;2023-04-24T03:47:03;10.70;1.00
20174;DHT22;10246;50.620;7.232;2023-04-24T03:49:30;10.60;1.00
20174;DHT22;10246;50.620;7.232;2023-04-24T03:51:57;10.60;1.00
20174;DHT22;10246;50.620;7.232;2023-04-24T03:54:23;10.50;1.00
20174;DHT22;10246;50.620;7.232;2023-04-24T03:56:51;10.50;1.00
20174;DHT22;10246;50.620;7.232;2023-04-24T03:59:18;10.50;1.00
20174;DHT22;10246;50.620;7.232;2023-04-24T04:01:45;10.50;1.00
20174;DHT22;10246;50.620;7.232;2023-04-24T04:04:12;10.50;1.00
20174;DHT22;10246;50.620;7.232;2023-04-24T04:06:38;10.40;1.00
20174;DHT22;10246;50.620;7.232;2023-04-24T04:09:05;10.50;1.00
20174;DHT22;10246;50.620;7.232;2023-04-24T04:11:32;10.40;1.00
20174;DHT22;10246;50.620;7.232;2023-04-24T04:14:00;10.40;1.00
20174;DHT22;10246;50.620;7.232;2023-04-24T04:16:27;10.40;1.00
20174;DHT22;10246;50.620;7.232;2023-04-24T04:18:54;10.40;1.00
20174;DHT22;10246;50.620;7.232;2023-04-24T04:21:21;10.40;1.00
20174;DHT22;10246;50.620;7.232;2023-04-24T04:23:48;10.30;1.00
20174;DHT22;10246;50.620;7.232;2023-04-24T04:26:15;10.30;1.00
20174;DHT22;10246;50.620;7.232;2023-04-24T04:28:41;10.30;1.00
20174;DHT22;10246;50.620;7.232;2023-04-24T04:31:11;10.40;1.00
20174;DHT22;10246;50.620;7.232;2023-04-24T04:33:38;10.40;1.00
20174;DHT22;10246;50.620;7.232;2023-04-24T04:36:05;10.40;1.00
20174;DHT22;10246;50.620;7.232;2023-04-24T04:38:32;10.30;1.00
20174;DHT22;10246;50.620;7.232;2023-04-24T04:41:00;10.30;1.00
20174;DHT22;10246;50.620;7.232;2023-04-24T04:43:27;10.30;1.00
20174;DHT22;10246;50.620;7.232;2023-04-24T04:45:54;10.30;1.00
20174;DHT22;10246;50.620;7.232;2023-04-24T04:48:22;10.20;1.00
20174;DHT22;10246;50.620;7.232;2023-04-24T04:50:49;10.20;1.00
20174;DHT22;10246;50.620;7.232;2023-04-24T04:53:16;10.30;1.00
20174;DHT22;10246;50.620;7.232;2023-04-24T04:55:45;10.30;1.00
20174;DHT22;10246;50.620;7.232;2023-04-24T04:58:11;10.30;1.00
20174;DHT22;10246;50.620;7.232;2023-04-24T05:00:38;10.40;1.00
20174;DHT22;10246;50.620;7.232;2023-04-24T05:03:05;10.40;1.00
20174;DHT22;10246;50.620;7.232;2023-04-24T05:05:33;10.40;1.00
20174;DHT22;10246;50.620;7.232;2023-04-24T05:08:00;10.40;1.00
20174;DHT22;10246;50.620;7.232;2023-04-24T05:10:27;10.40;1.00
20174;DHT22;10246;50.620;7.232;2023-04-24T05:12:54;10.40;1.00
20174;DHT22;10246;50.620;7.232;2023-04-24T05:15:21;10.40;1.00
20174;DHT22;10246;50.620;7.232;2023-04-24T05:17:47;10.50;1.00
20174;DHT22;10246;50.620;7.232;2023-04-24T05:20:14;10.50;1.00
20174;DHT22;10246;50.620;7.232;2023-04-24T05:22:42;10.60;1.00
20174;DHT22;10246;50.620;7.232;2023-04-24T05:25:09;10.60;1.00
20174;DHT22;10246;50.620;7.232;2023-04-24T05:27:38;10.70;1.00
20174;DHT22;10246;50.620;7.232;2023-04-24T05:30:06;10.70;1.00
20174;DHT22;10246;50.620;7.232;2023-04-24T05:32:33;10.70;1.00
20174;DHT22;10246;50.620;7.232;2023-04-24T05:34:59;10.70;1.00
20174;DHT22;10246;50.620;7.232;2023-04-24T05:37:26;10.70;1.00
20174;DHT22;10246;50.620;7.232;2023-04-24T05:39:55;10.70;1.00
20174;DHT22;10246;50.620;7.232;2023-04-24T05:42:21;10.80;1.00
20174;DHT22;10246;50.620;7.232;2023-04-24T05:44:48;10.80;1.00
20174;DHT22;10246;50.620;7.232;2023-04-24T05:47:15;10.80;1.00
20174;DHT22;10246;50.620;7.232;2023-04-24T05:49:42;10.80;1.00
20174;DHT22;10246;50.620;7.232;2023-04-24T05:52:09;10.80;1.00
20174;DHT22;10246;50.620;7.232;2023-04-24T05:54:35;10.90;1.00
20174;DHT22;10246;50.620;7.232;2023-04-24T05:57:03;10.90;1.00
20174;DHT22;10246;50.620;7.232;2023-04-24T05:59:33;10.90;1.00
20174;DHT22;10246;50.620;7.232;2023-04-24T06:01:59;10.90;1.00
20174;DHT22;10246;50.620;7.232;2023-04-24T06:04:26;10.90;1.00
20174;DHT22;10246;50.620;7.232;2023-04-24T06:06:53;11.00;1.00
20174;DHT22;10246;50.620;7.232;2023-04-24T06:09:21;10.90;1.00
20174;DHT22;10246;50.620;7.232;2023-04-24T06:11:48;11.00;1.00
20174;DHT22;10246;50.620;7.232;2023-04-24T06:14:16;11.00;1.00
20174;DHT22;10246;50.620;7.232;2023-04-24T06:16:43;11.10;1.00
20174;DHT22;10246;50.620;7.232;2023-04-24T06:19:10;11.10;1.00
20174;DHT22;10246;50.620;7.232;2023-04-24T06:21:37;11.10;1.00
20174;DHT22;10246;50.620;7.232;2023-04-24T06:24:03;11.10;1.00
20174;DHT22;10246;50.620;7.232;2023-04-24T06:26:31;11.10;1.00
20174;DHT22;10246;50.620;7.232;2023-04-24T06:28:57;11.10;1.00
20174;DHT22;10246;50.620;7.232;2023-04-24T06:31:26;11.10;1.00
20174;DHT22;10246;50.620;7.232;2023-04-24T06:33:53;11.10;1.00
20174;DHT22;10246;50.620;7.232;2023-04-24T06:36:20;11.10;1.00
20174;DHT22;10246;50.620;7.232;2023-04-24T06:38:47;11.10;1.00
20174;DHT22;10246;50.620;7.232;2023-04-24T06:41:14;11.20;1.00
20174;DHT22;10246;50.620;7.232;2023-04-24T06:43:40;11.30;1.00
20174;DHT22;10246;50.620;7.232;2023-04-24T06:46:07;11.30;1.00
20174;DHT22;10246;50.620;7.232;2023-04-24T06:48:35;11.30;1.00
20174;DHT22;10246;50.620;7.232;2023-04-24T06:51:02;11.30;1.00
20174;DHT22;10246;50.620;7.232;2023-04-24T06:53:29;11.30;1.00
20174;DHT22;10246;50.620;7.232;2023-04-24T06:55:56;11.30;1.00
20174;DHT22;10246;50.620;7.232;2023-04-24T06:58:24;11.30;1.00
20174;DHT22;10246;50.620;7.232;2023-04-24T07:00:51;11.30;1.00
20174;DHT22;10246;50.620;7.232;2023-04-24T07:03:18;11.40;1.00
20174;DHT22;10246;50.620;7.232;2023-04-24T07:05:46;11.40;1.00
20174;DHT22;10246;50.620;7.232;2023-04-24T07:08:13;11.30;1.00
20174;DHT22;10246;50.620;7.232;2023-04-24T07:10:42;11.30;1.00
20174;DHT22;10246;50.620;7.232;2023-04-24T07:13:09;11.40;1.00
20174;DHT22;10246;50.620;7.232;2023-04-24T07:15:36;11.40;1.00
20174;DHT22;10246;50.620;7.232;2023-04-24T07:18:02;11.30;1.00
20174;DHT22;10246;50.620;7.232;2023-04-24T07:20:29;11.30;1.00
20174;DHT22;10246;50.620;7.232;2023-04-24T07:22:57;11.30;1.00
20174;DHT22;10246;50.620;7.232;2023-04-24T07:25:24;11.30;1.00
20174;DHT22;10246;50.620;7.232;2023-04-24T07:27:51;11.30;1.00
20174;DHT22;10246;50.620;7.232;2023-04-24T07:30:18;11.30;1.00
20174;DHT22;10246;50.620;7.232;2023-04-24T07:32:45;11.30;1.00
20174;DHT22;10246;50.620;7.232;2023-04-24T07:35:11;11.30;1.00
20174;DHT22;10246;50.620;7.232;2023-04-24T07:37:38;11.30;1.00
20174;DHT22;10246;50.620;7.232;2023-04-24T07:40:07;11.30;1.00
20174;DHT22;10246;50.620;7.232;2023-04-24T07:42:34;11.30;1.00
20174;DHT22;10246;50.620;7.232;2023-04-24T07:45:01;11.30;1.00
20174;DHT22;10246;50.620;7.232;2023-04-24T07:47:28;11.20;1.00
20174;DHT22;10246;50.620;7.232;2023-04-24T07:49:55;11.20;1.00
20174;DHT22;10246;50.620;7.232;2023-04-24T07:52:22;11.20;1.00
20174;DHT22;10246;50.620;7.232;2023-04-24T07:54:49;11.30;1.00
20174;DHT22;10246;50.620;7.232;2023-04-24T07:57:17;11.30;1.00
20174;DHT22;10246;50.620;7.232;2023-04-24T07:59:44;11.30;1.00
20174;DHT22;10246;50.620;7.232;2023-04-24T08:02:10;11.30;1.00
20174;DHT22;10246;50.620;7.232;2023-04-24T08:04:37;11.20;1.00
20174;DHT22;10246;50.620;7.232;2023-04-24T08:07:04;11.20;1.00
20174;DHT22;10246;50.620;7.232;2023-04-24T08:09:31;11.20;1.00
20174;DHT22;10246;50.620;7.232;2023-04-24T08:11:57;11.10;1.00
20174;DHT22;10246;50.620;7.232;2023-04-24T08:14:25;11.20;1.00
20174;DHT22;10246;50.620;7.232;2023-04-24T08:16:54;11.20;1.00
20174;DHT22;10246;50.620;7.232;2023-04-24T08:19:22;11.20;1.00
20174;DHT22;10246;50.620;7.232;2023-04-24T08:21:49;11.20;1.00
20174;DHT22;10246;50.620;7.232;2023-04-24T08:24:16;11.20;1.00
20174;DHT22;10246;50.620;7.232;2023-04-24T08:26:42;11.20;1.00
20174;DHT22;10246;50.620;7.232;2023-04-24T08:29:09;11.20;1.00
20174;DHT22;10246;50.620;7.232;2023-04-24T08:31:37;11.20;1.00
20174;DHT22;10246;50.620;7.232;2023-04-24T08:34:04;11.10;1.00
20174;DHT22;10246;50.620;7.232;2023-04-24T08:36:31;11.10;1.00
20174;DHT22;10246;50.620;7.232;2023-04-24T08:38:58;11.10;1.00
20174;DHT22;10246;50.620;7.232;2023-04-24T08:41:27;11.10;1.70
20174;DHT22;10246;50.620;7.232;2023-04-24T08:43:54;11.10;1.80
20174;DHT22;10246;50.620;7.232;2023-04-24T08:46:24;11.00;2.70
20174;DHT22;10246;50.620;7.232;2023-04-24T08:48:52;11.00;3.90
20174;DHT22;10246;50.620;7.232;2023-04-24T08:51:19;11.00;1.00
20174;DHT22;10246;50.620;7.232;2023-04-24T08:53:47;10.90;1.00
20174;DHT22;10246;50.620;7.232;2023-04-24T08:56:14;10.70;1.00
20174;DHT22;10246;50.620;7.232;2023-04-24T08:58:42;10.70;1.00
20174;DHT22;10246;50.620;7.232;2023-04-24T09:01:09;10.50;1.00
20174;DHT22;10246;50.620;7.232;2023-04-24T09:03:36;10.50;1.00
20174;DHT22;10246;50.620;7.232;2023-04-24T09:06:06;10.50;1.00
20174;DHT22;10246;50.620;7.232;2023-04-24T09:08:35;10.50;1.00
20174;DHT22;10246;50.620;7.232;2023-04-24T09:11:02;10.40;2.50
20174;DHT22;10246;50.620;7.232;2023-04-24T09:13:30;10.40;3.50
20174;DHT22;10246;50.620;7.232;2023-04-24T09:15:58;10.50;2.90
20174;DHT22;10246;50.620;7.232;2023-04-24T09:18:26;10.50;4.90
20174;DHT22;10246;50.620;7.232;2023-04-24T09:21:00;10.60;3.40
20174;DHT22;10246;50.620;7.232;2023-04-24T09:23:29;10.70;4.60
20174;DHT22;10246;50.620;7.232;2023-04-24T09:25:58;10.90;1.90
20174;DHT22;10246;50.620;7.232;2023-04-24T09:28:26;10.90;1.20
20174;DHT22;10246;50.620;7.232;2023-04-24T09:31:03;10.80;2.40
20174;DHT22;10246;50.620;7.232;2023-04-24T09:33:30;10.80;1.70
20174;DHT22;10246;50.620;7.232;2023-04-24T09:35:57;10.80;2.00
20174;DHT22;10246;50.620;7.232;2023-04-24T09:38:33;10.70;1.30
20174;DHT22;10246;50.620;7.232;2023-04-24T09:41:01;10.70;3.00
20174;DHT22;10246;50.620;7.232;2023-04-24T09:43:29;10.80;1.00
20174;DHT22;10246;50.620;7.232;2023-04-24T09:45:56;10.80;2.50
20174;DHT22;10246;50.620;7.232;2023-04-24T09:48:30;10.80;1.80
20174;DHT22;10246;50.620;7.232;2023-04-24T09:50:58;10.90;1.00
20174;DHT22;10246;50.620;7.232;2023-04-24T09:53:26;10.90;1.00
20174;DHT22;10246;50.620;7.232;2023-04-24T09:55:55;10.80;1.40
20174;DHT22;10246;50.620;7.232;2023-04-24T09:58:25;10.80;1.50
20174;DHT22;10246;50.620;7.232;2023-04-24T10:00:53;10.90;1.70
20174;DHT22;10246;50.620;7.232;2023-04-24T10:03:24;10.90;1.00
20174;DHT22;10246;50.620;7.232;2023-04-24T10:05:52;10.90;1.00
20174;DHT22;10246;50.620;7.232;2023-04-24T10:08:19;10.90;1.00
20174;DHT22;10246;50.620;7.232;2023-04-24T10:10:47;10.90;2.10
20174;DHT22;10246;50.620;7.232;2023-04-24T10:13:15;10.80;2.40
20174;DHT22;10246;50.620;7.232;2023-04-24T10:15:42;10.90;4.50
20174;DHT22;10246;50.620;7.232;2023-04-24T10:18:10;11.00;5.20
20174;DHT22;10246;50.620;7.232;2023-04-24T10:20:39;11.10;4.00
20174;DHT22;10246;50.620;7.232;2023-04-24T10:23:06;11.00;3.50
20174;DHT22;10246;50.620;7.232;2023-04-24T10:25:34;11.00;1.90
20174;DHT22;10246;50.620;7.232;2023-04-24T10:28:03;10.90;4.20
20174;DHT22;10246;50.620;7.232;2023-04-24T10:30:32;10.90;4.70
20174;DHT22;10246;50.620;7.232;2023-04-24T10:33:01;10.80;5.60
20174;DHT22;10246;50.620;7.232;2023-04-24T10:35:32;10.60;5.50
20174;DHT22;10246;50.620;7.232;2023-04-24T10:38:03;10.20;6.70
20174;DHT22;10246;50.620;7.232;2023-04-24T10:40:33;10.20;9.70
20174;DHT22;10246;50.620;7.232;2023-04-24T10:43:02;10.10;8.20
20174;DHT22;10246;50.620;7.232;2023-04-24T10:45:33;10.10;9.80
20174;DHT22;10246;50.620;7.232;2023-04-24T10:48:02;10.20;8.60
20174;DHT22;10246;50.620;7.232;2023-04-24T10:50:41;10.10;8.20
20174;DHT22;10246;50.620;7.232;2023-04-24T10:53:13;10.10;10.40
20174;DHT22;10246;50.620;7.232;2023-04-24T10:55:45;10.20;8.80
20174;DHT22;10246;50.620;7.232;2023-04-24T10:58:12;10.30;7.50
20174;DHT22;10246;50.620;7.232;2023-04-24T11:00:42;10.30;6.10
20174;DHT22;10246;50.620;7.232;2023-04-24T11:03:23;10.20;6.90
20174;DHT22;10246;50.620;7.232;2023-04-24T11:05:57;10.30;7.30
20174;DHT22;10246;50.620;7.232;2023-04-24T11:08:32;10.40;9.10
20174;DHT22;10246;50.620;7.232;2023-04-24T11:11:02;10.40;9.70
20174;DHT22;10246;50.620;7.232;2023-04-24T11:14:01;10.60;9.00
20174;DHT22;10246;50.620;7.232;2023-04-24T11:16:30;10.70;8.60
20174;DHT22;10246;50.620;7.232;2023-04-24T11:19:03;10.80;9.30
20174;DHT22;10246;50.620;7.232;2023-04-24T11:21:40;11.00;6.00
20174;DHT22;10246;50.620;7.232;2023-04-24T11:24:31;11.20;3.80
20174;DHT22;10246;50.620;7.232;2023-04-24T11:27:01;11.30;2.60
20174;DHT22;10246;50.620;7.232;2023-04-24T11:29:49;11.30;5.00
20174;DHT22;10246;50.620;7.232;2023-04-24T11:32:28;11.40;4.30
20174;DHT22;10246;50.620;7.232;2023-04-24T11:34:57;11.50;4.30
20174;DHT22;10246;50.620;7.232;2023-04-24T11:37:26;11.60;3.70
20174;DHT22;10246;50.620;7.232;2023-04-24T11:39:54;11.50;2.60
20174;DHT22;10246;50.620;7.232;2023-04-24T11:42:21;11.60;3.40
20174;DHT22;10246;50.620;7.232;2023-04-24T11:44:49;11.70;5.20
20174;DHT22;10246;50.620;7.232;2023-04-24T11:47:16;11.80;4.80
20174;DHT22;10246;50.620;7.232;2023-04-24T11:49:44;11.80;1.00
20174;DHT22;10246;50.620;7.232;2023-04-24T11:52:15;11.80;1.00
20174;DHT22;10246;50.620;7.232;2023-04-24T11:54:47;11.80;1.00
20174;DHT22;10246;50.620;7.232;2023-04-24T11:57:14;11.70;1.00
20174;DHT22;10246;50.620;7.232;2023-04-24T11:59:40;11.70;1.00
20174;DHT22;10246;50.620;7.232;2023-04-24T12:02:08;11.70;1.00
20174;DHT22;10246;50.620;7.232;2023-04-24T12:04:39;11.80;1.00
20174;DHT22;10246;50.620;7.232;2023-04-24T12:07:08;11.80;1.00
20174;DHT22;10246;50.620;7.232;2023-04-24T12:09:42;11.80;1.00
20174;DHT22;10246;50.620;7.232;2023-04-24T12:12:09;11.90;1.00
20174;DHT22;10246;50.620;7.232;2023-04-24T12:14:52;12.00;1.00
20174;DHT22;10246;50.620;7.232;2023-04-24T12:17:26;12.20;1.00
20174;DHT22;10246;50.620;7.232;2023-04-24T12:19:57;12.10;1.00
20174;DHT22;10246;50.620;7.232;2023-04-24T12:22:25;12.10;1.00
20174;DHT22;10246;50.620;7.232;2023-04-24T12:25:00;12.10;1.00
20174;DHT22;10246;50.620;7.232;2023-04-24T12:27:30;12.20;1.00
20174;DHT22;10246;50.620;7.232;2023-04-24T12:29:58;12.30;1.00
20174;DHT22;10246;50.620;7.232;2023-04-24T12:32:25;12.60;1.00
20174;DHT22;10246;50.620;7.232;2023-04-24T12:34:52;12.70;1.00
20174;DHT22;10246;50.620;7.232;2023-04-24T12:37:19;12.80;1.00
20174;DHT22;10246;50.620;7.232;2023-04-24T12:40:02;12.70;1.00
20174;DHT22;10246;50.620;7.232;2023-04-24T12:42:30;12.70;1.00
20174;DHT22;10246;50.620;7.232;2023-04-24T12:44:57;12.90;1.00
20174;DHT22;10246;50.620;7.232;2023-04-24T12:47:25;13.20;1.00
20174;DHT22;10246;50.620;7.232;2023-04-24T12:49:52;13.40;1.00
20174;DHT22;10246;50.620;7.232;2023-04-24T12:52:20;13.60;1.00
20174;DHT22;10246;50.620;7.232;2023-04-24T12:54:47;13.80;1.00
20174;DHT22;10246;50.620;7.232;2023-04-24T12:57:15;13.90;1.00
20174;DHT22;10246;50.620;7.232;2023-04-24T12:59:42;14.10;1.00
20174;DHT22;10246;50.620;7.232;2023-04-24T13:02:09;14.30;1.00
20174;DHT22;10246;50.620;7.232;2023-04-24T13:04:36;14.40;1.00
20174;DHT22;10246;50.620;7.232;2023-04-24T13:07:03;14.60;1.00
20174;DHT22;10246;50.620;7.232;2023-04-24T13:09:30;14.70;1.00
20174;DHT22;10246;50.620;7.232;2023-04-24T13:11:57;14.70;1.00
20174;DHT22;10246;50.620;7.232;2023-04-24T13:14:25;14.40;1.00
20174;DHT22;10246;50.620;7.232;2023-04-24T13:16:52;14.20;1.00
20174;DHT22;10246;50.620;7.232;2023-04-24T13:19:18;14.00;1.00
20174;DHT22;10246;50.620;7.232;2023-04-24T13:21:46;14.00;1.00
20174;DHT22;10246;50.620;7.232;2023-04-24T13:24:13;13.80;1.00
20174;DHT22;10246;50.620;7.232;2023-04-24T13:26:41;13.60;1.00
20174;DHT22;10246;50.620;7.232;2023-04-24T13:29:08;13.30;1.00
20174;DHT22;10246;50.620;7.232;2023-04-24T13:31:36;12.90;1.00
20174;DHT22;10246;50.620;7.232;2023-04-24T13:34:02;12.50;1.00
20174;DHT22;10246;50.620;7.232;2023-04-24T13:36:29;12.50;1.00
20174;DHT22;10246;50.620;7.232;2023-04-24T13:38:57;12.50;1.00
20174;DHT22;10246;50.620;7.232;2023-04-24T13:41:24;12.70;1.00
20174;DHT22;10246;50.620;7.232;2023-04-24T13:43:50;12.80;1.00
20174;DHT22;10246;50.620;7.232;2023-04-24T13:46:17;13.10;1.00
20174;DHT22;10246;50.620;7.232;2023-04-24T13:48:45;13.40;1.00
20174;DHT22;10246;50.620;7.232;2023-04-24T13:51:12;13.70;1.00
20174;DHT22;10246;50.620;7.232;2023-04-24T13:53:38;13.90;1.00
20174;DHT22;10246;50.620;7.232;2023-04-24T13:56:06;14.10;1.00
20174;DHT22;10246;50.620;7.232;2023-04-24T13:58:33;13.90;1.00
20174;DHT22;10246;50.620;7.232;2023-04-24T14:01:00;13.90;1.00
20174;DHT22;10246;50.620;7.232;2023-04-24T14:03:26;13.70;1.00
20174;DHT22;10246;50.620;7.232;2023-04-24T14:05:54;13.70;1.00
20174;DHT22;10246;50.620;7.232;2023-04-24T14:08:21;13.90;1.00
20174;DHT22;10246;50.620;7.232;2023-04-24T14:10:48;14.30;1.00
20174;DHT22;10246;50.620;7.232;2023-04-24T14:13:16;14.40;1.00
20174;DHT22;10246;50.620;7.232;2023-04-24T14:15:43;14.50;1.00
20174;DHT22;10246;50.620;7.232;2023-04-24T14:18:10;14.50;1.00
20174;DHT22;10246;50.620;7.232;2023-04-24T14:20:36;14.40;1.00
20174;DHT22;10246;50.620;7.232;2023-04-24T14:23:04;14.20;1.00
20174;DHT22;10246;50.620;7.232;2023-04-24T14:25:31;14.20;1.00
20174;DHT22;10246;50.620;7.232;2023-04-24T14:27:58;14.10;1.00
20174;DHT22;10246;50.620;7.232;2023-04-24T14:30:25;14.10;1.00
20174;DHT22;10246;50.620;7.232;2023-04-24T14:32:51;14.10;1.00
20174;DHT22;10246;50.620;7.232;2023-04-24T14:35:19;14.10;1.00
20174;DHT22;10246;50.620;7.232;2023-04-24T14:37:45;14.10;1.00
20174;DHT22;10246;50.620;7.232;2023-04-24T14:40:15;14.30;1.00
20174;DHT22;10246;50.620;7.232;2023-04-24T14:42:41;14.50;1.00
20174;DHT22;10246;50.620;7.232;2023-04-24T14:45:09;14.60;1.00
20174;DHT22;10246;50.620;7.232;2023-04-24T14:47:36;14.80;1.00
20174;DHT22;10246;50.620;7.232;2023-04-24T14:50:04;14.90;1.00
20174;DHT22;10246;50.620;7.232;2023-04-24T14:52:31;14.80;1.00
20174;DHT22;10246;50.620;7.232;2023-04-24T14:54:58;14.70;1.00
20174;DHT22;10246;50.620;7.232;2023-04-24T14:57:26;14.60;1.00
20174;DHT22;10246;50.620;7.232;2023-04-24T14:59:53;14.40;1.00
20174;DHT22;10246;50.620;7.232;2023-04-24T15:02:19;14.30;1.00
20174;DHT22;10246;50.620;7.232;2023-04-24T15:04:46;14.20;1.00
20174;DHT22;10246;50.620;7.232;2023-04-24T15:07:13;14.00;1.00
20174;DHT22;10246;50.620;7.232;2023-04-24T15:09:40;14.00;1.00
20174;DHT22;10246;50.620;7.232;2023-04-24T15:12:08;14.00;1.00
20174;DHT22;10246;50.620;7.232;2023-04-24T15:14:36;14.30;1.00
20174;DHT22;10246;50.620;7.232;2023-04-24T15:17:03;14.40;1.00
20174;DHT22;10246;50.620;7.232;2023-04-24T15:19:31;14.70;1.00
20174;DHT22;10246;50.620;7.232;2023-04-24T15:21:58;14.90;1.00
20174;DHT22;10246;50.620;7.232;2023-04-24T15:24:25;15.10;1.00
20174;DHT22;10246;50.620;7.232;2023-04-24T15:26:52;15.10;1.00
20174;DHT22;10246;50.620;7.232;2023-04-24T15:29:19;15.20;1.00
20174;DHT22;10246;50.620;7.232;2023-04-24T15:31:47;15.30;1.00
20174;DHT22;10246;50.620;7.232;2023-04-24T15:34:14;15.40;1.00
20174;DHT22;10246;50.620;7.232;2023-04-24T15:36:41;15.50;1.00
20174;DHT22;10246;50.620;7.232;2023-04-24T15:39:07;15.80;1.00
20174;DHT22;10246;50.620;7.232;2023-04-24T15:41:35;15.90;1.00
20174;DHT22;10246;50.620;7.232;2023-04-24T15:44:02;15.80;1.00
20174;DHT22;10246;50.620;7.232;2023-04-24T15:46:29;15.60;1.00
20174;DHT22;10246;50.620;7.232;2023-04-24T15:48:57;15.50;1.00